sensor_id;sensor_type;location;lat;lon;timestamp;P1;durP1;ratioP1;P2;durP2;ratioP2
76788;SDS011;65740;52.464;13.446;2023-01-16T00:02:00;2.53;;;2.33;;
76788;SDS011;65740;52.464;13.446;2023-01-16T00:04:26;2.90;;;2.70;;
76788;SDS011;65740;52.464;13.446;2023-01-16T00:06:53;2.70;;;2.53;;
76788;SDS011;65740;52.464;13.446;2023-01-16T00:09:19;3.10;;;2.80;;
76788;SDS011;65740;52.464;13.446;2023-01-16T00:11:45;2.70;;;2.50;;
76788;SDS011;65740;52.464;13.446;2023-01-16T00:14:11;3.03;;;2.80;;
76788;SDS011;65740;52.464;13.446;2023-01-16T00:16:37;2.90;;;2.67;;
76788;SDS011;65740;52.464;13.446;2023-01-16T00:19:02;3.03;;;2.83;;
76788;SDS011;65740;52.464;13.446;2023-01-16T00:21:28;2.37;;;2.17;;
76788;SDS011;65740;52.464;13.446;2023-01-16T00:23:57;2.50;;;2.30;;
76788;SDS011;65740;52.464;13.446;2023-01-16T00:26:23;2.73;;;2.47;;
76788;SDS011;65740;52.464;13.446;2023-01-16T00:28:50;2.23;;;2.13;;
76788;SDS011;65740;52.464;13.446;2023-01-16T00:31:16;2.20;;;2.10;;
76788;SDS011;65740;52.464;13.446;2023-01-16T00:33:41;2.80;;;2.60;;
76788;SDS011;65740;52.464;13.446;2023-01-16T00:36:08;3.00;;;2.80;;
76788;SDS011;65740;52.464;13.446;2023-01-16T00:38:34;2.80;;;2.50;;
76788;SDS011;65740;52.464;13.446;2023-01-16T00:41:00;2.50;;;2.30;;
76788;SDS011;65740;52.464;13.446;2023-01-16T00:43:26;2.50;;;2.30;;
76788;SDS011;65740;52.464;13.446;2023-01-16T00:45:51;2.10;;;2.00;;
76788;SDS011;65740;52.464;13.446;2023-01-16T00:48:17;2.53;;;2.30;;
76788;SDS011;65740;52.464;13.446;2023-01-16T00:50:43;2.60;;;2.40;;
76788;SDS011;65740;52.464;13.446;2023-01-16T00:53:08;2.77;;;2.40;;
76788;SDS011;65740;52.464;13.446;2023-01-16T00:55:34;2.60;;;2.40;;
76788;SDS011;65740;52.464;13.446;2023-01-16T00:58:01;2.60;;;2.40;;
76788;SDS011;65740;52.464;13.446;2023-01-16T01:00:28;2.57;;;2.37;;
76788;SDS011;65740;52.464;13.446;2023-01-16T01:02:53;2.33;;;2.13;;
76788;SDS011;65740;52.464;13.446;2023-01-16T01:05:19;3.83;;;2.77;;
76788;SDS011;65740;52.464;13.446;2023-01-16T01:07:45;2.43;;;2.23;;
76788;SDS011;65740;52.464;13.446;2023-01-16T01:10:11;2.67;;;2.47;;
76788;SDS011;65740;52.464;13.446;2023-01-16T01:12:36;2.50;;;2.40;;
76788;SDS011;65740;52.464;13.446;2023-01-16T01:15:02;2.40;;;2.30;;
76788;SDS011;65740;52.464;13.446;2023-01-16T01:17:28;2.60;;;2.40;;
76788;SDS011;65740;52.464;13.446;2023-01-16T01:19:54;2.40;;;2.20;;
76788;SDS011;65740;52.464;13.446;2023-01-16T01:22:19;2.00;;;1.90;;
76788;SDS011;65740;52.464;13.446;2023-01-16T01:24:48;2.20;;;2.00;;
76788;SDS011;65740;52.464;13.446;2023-01-16T01:27:15;2.50;;;2.30;;
76788;SDS011;65740;52.464;13.446;2023-01-16T01:29:41;2.60;;;2.40;;
76788;SDS011;65740;52.464;13.446;2023-01-16T01:32:06;2.00;;;1.87;;
76788;SDS011;65740;52.464;13.446;2023-01-16T01:34:32;3.30;;;2.40;;
76788;SDS011;65740;52.464;13.446;2023-01-16T01:37:02;2.60;;;2.33;;
76788;SDS011;65740;52.464;13.446;2023-01-16T01:39:30;4.13;;;2.00;;
76788;SDS011;65740;52.464;13.446;2023-01-16T01:41:56;2.80;;;2.60;;
76788;SDS011;65740;52.464;13.446;2023-01-16T01:44:45;2.27;;;2.07;;
76788;SDS011;65740;52.464;13.446;2023-01-16T01:47:15;2.63;;;2.43;;
76788;SDS011;65740;52.464;13.446;2023-01-16T01:49:45;2.20;;;2.10;;
76788;SDS011;65740;52.464;13.446;2023-01-16T01:52:11;2.77;;;2.30;;
76788;SDS011;65740;52.464;13.446;2023-01-16T01:54:38;2.40;;;2.20;;
76788;SDS011;65740;52.464;13.446;2023-01-16T01:57:12;2.90;;;2.70;;
76788;SDS011;65740;52.464;13.446;2023-01-16T01:59:49;2.20;;;2.10;;
76788;SDS011;65740;52.464;13.446;2023-01-16T02:02:30;2.30;;;2.10;;
76788;SDS011;65740;52.464;13.446;2023-01-16T02:04:58;2.73;;;2.60;;
76788;SDS011;65740;52.464;13.446;2023-01-16T02:07:26;2.60;;;2.40;;
76788;SDS011;65740;52.464;13.446;2023-01-16T02:09:54;2.60;;;2.40;;
76788;SDS011;65740;52.464;13.446;2023-01-16T02:12:35;2.23;;;2.13;;
76788;SDS011;65740;52.464;13.446;2023-01-16T02:15:01;2.27;;;2.03;;
76788;SDS011;65740;52.464;13.446;2023-01-16T02:17:27;2.40;;;2.30;;
76788;SDS011;65740;52.464;13.446;2023-01-16T02:28:26;2.37;;;2.17;;
76788;SDS011;65740;52.464;13.446;2023-01-16T02:31:31;2.10;;;2.00;;
76788;SDS011;65740;52.464;13.446;2023-01-16T02:34:16;2.10;;;2.00;;
76788;SDS011;65740;52.464;13.446;2023-01-16T02:39:51;2.20;;;2.10;;
76788;SDS011;65740;52.464;13.446;2023-01-16T02:53:13;2.27;;;2.17;;
76788;SDS011;65740;52.464;13.446;2023-01-16T02:55:47;2.40;;;2.30;;
76788;SDS011;65740;52.464;13.446;2023-01-16T02:58:17;2.40;;;2.30;;
76788;SDS011;65740;52.464;13.446;2023-01-16T03:00:48;2.20;;;2.10;;
76788;SDS011;65740;52.464;13.446;2023-01-16T03:03:26;2.30;;;2.10;;
76788;SDS011;65740;52.464;13.446;2023-01-16T03:11:51;2.43;;;2.23;;
76788;SDS011;65740;52.464;13.446;2023-01-16T03:17:34;2.33;;;2.23;;
76788;SDS011;65740;52.464;13.446;2023-01-16T03:20:09;2.87;;;2.17;;
76788;SDS011;65740;52.464;13.446;2023-01-16T03:25:35;2.10;;;2.00;;
76788;SDS011;65740;52.464;13.446;2023-01-16T03:31:13;2.57;;;2.37;;
76788;SDS011;65740;52.464;13.446;2023-01-16T03:36:47;2.47;;;2.27;;
76788;SDS011;65740;52.464;13.446;2023-01-16T03:39:21;2.23;;;2.13;;
76788;SDS011;65740;52.464;13.446;2023-01-16T03:41:58;2.60;;;2.40;;
76788;SDS011;65740;52.464;13.446;2023-01-16T03:44:29;2.40;;;2.30;;
76788;SDS011;65740;52.464;13.446;2023-01-16T03:47:00;2.50;;;2.40;;
76788;SDS011;65740;52.464;13.446;2023-01-16T03:49:29;1.83;;;1.73;;
76788;SDS011;65740;52.464;13.446;2023-01-16T03:52:00;3.00;;;2.80;;
76788;SDS011;65740;52.464;13.446;2023-01-16T03:59:44;2.23;;;2.10;;
76788;SDS011;65740;52.464;13.446;2023-01-16T04:02:13;2.43;;;2.33;;
76788;SDS011;65740;52.464;13.446;2023-01-16T04:07:34;2.10;;;2.00;;
76788;SDS011;65740;52.464;13.446;2023-01-16T04:10:11;2.27;;;2.10;;
76788;SDS011;65740;52.464;13.446;2023-01-16T04:12:42;2.20;;;2.10;;
76788;SDS011;65740;52.464;13.446;2023-01-16T04:15:11;2.30;;;2.20;;
76788;SDS011;65740;52.464;13.446;2023-01-16T04:17:38;2.20;;;2.10;;
76788;SDS011;65740;52.464;13.446;2023-01-16T04:20:04;2.20;;;2.10;;
76788;SDS011;65740;52.464;13.446;2023-01-16T04:22:31;2.10;;;2.00;;
76788;SDS011;65740;52.464;13.446;2023-01-16T04:24:57;2.40;;;2.30;;
76788;SDS011;65740;52.464;13.446;2023-01-16T04:27:25;2.40;;;2.30;;
76788;SDS011;65740;52.464;13.446;2023-01-16T04:29:51;2.57;;;2.37;;
76788;SDS011;65740;52.464;13.446;2023-01-16T04:32:17;2.40;;;2.30;;
76788;SDS011;65740;52.464;13.446;2023-01-16T04:34:43;2.30;;;2.10;;
76788;SDS011;65740;52.464;13.446;2023-01-16T04:37:11;2.00;;;1.90;;
76788;SDS011;65740;52.464;13.446;2023-01-16T04:39:38;2.23;;;2.13;;
76788;SDS011;65740;52.464;13.446;2023-01-16T04:42:05;2.23;;;2.13;;
76788;SDS011;65740;52.464;13.446;2023-01-16T04:44:31;2.17;;;2.07;;
76788;SDS011;65740;52.464;13.446;2023-01-16T04:46:57;1.90;;;1.80;;
76788;SDS011;65740;52.464;13.446;2023-01-16T04:49:22;2.10;;;2.00;;
76788;SDS011;65740;52.464;13.446;2023-01-16T04:51:48;2.30;;;2.20;;
76788;SDS011;65740;52.464;13.446;2023-01-16T04:54:14;3.53;;;2.10;;
76788;SDS011;65740;52.464;13.446;2023-01-16T04:56:41;2.47;;;2.27;;
76788;SDS011;65740;52.464;13.446;2023-01-16T04:59:07;2.37;;;2.27;;
76788;SDS011;65740;52.464;13.446;2023-01-16T05:01:33;2.50;;;2.30;;
76788;SDS011;65740;52.464;13.446;2023-01-16T05:04:06;2.20;;;2.10;;
76788;SDS011;65740;52.464;13.446;2023-01-16T05:06:33;2.50;;;2.40;;
76788;SDS011;65740;52.464;13.446;2023-01-16T05:08:59;2.00;;;1.90;;
76788;SDS011;65740;52.464;13.446;2023-01-16T05:11:25;2.20;;;2.10;;
76788;SDS011;65740;52.464;13.446;2023-01-16T05:13:50;1.70;;;1.60;;
76788;SDS011;65740;52.464;13.446;2023-01-16T05:16:16;2.00;;;1.90;;
76788;SDS011;65740;52.464;13.446;2023-01-16T05:18:42;2.20;;;2.10;;
76788;SDS011;65740;52.464;13.446;2023-01-16T05:21:07;2.23;;;2.00;;
76788;SDS011;65740;52.464;13.446;2023-01-16T05:23:33;2.07;;;1.97;;
76788;SDS011;65740;52.464;13.446;2023-01-16T05:26:00;2.07;;;1.97;;
76788;SDS011;65740;52.464;13.446;2023-01-16T05:28:26;2.47;;;2.37;;
76788;SDS011;65740;52.464;13.446;2023-01-16T05:30:52;2.20;;;2.10;;
76788;SDS011;65740;52.464;13.446;2023-01-16T05:33:18;2.23;;;2.13;;
76788;SDS011;65740;52.464;13.446;2023-01-16T05:35:44;2.07;;;1.87;;
76788;SDS011;65740;52.464;13.446;2023-01-16T05:38:10;2.50;;;2.20;;
76788;SDS011;65740;52.464;13.446;2023-01-16T05:40:36;2.63;;;2.47;;
76788;SDS011;65740;52.464;13.446;2023-01-16T05:43:02;2.10;;;2.00;;
76788;SDS011;65740;52.464;13.446;2023-01-16T05:45:27;2.17;;;2.07;;
76788;SDS011;65740;52.464;13.446;2023-01-16T05:47:53;2.17;;;2.07;;
76788;SDS011;65740;52.464;13.446;2023-01-16T05:50:19;2.50;;;1.80;;
76788;SDS011;65740;52.464;13.446;2023-01-16T05:52:44;2.40;;;2.20;;
76788;SDS011;65740;52.464;13.446;2023-01-16T05:55:10;2.47;;;2.37;;
76788;SDS011;65740;52.464;13.446;2023-01-16T05:57:36;2.47;;;2.37;;
76788;SDS011;65740;52.464;13.446;2023-01-16T06:00:01;2.40;;;2.30;;
76788;SDS011;65740;52.464;13.446;2023-01-16T06:02:28;2.27;;;2.17;;
76788;SDS011;65740;52.464;13.446;2023-01-16T06:04:54;2.30;;;2.17;;
76788;SDS011;65740;52.464;13.446;2023-01-16T06:07:20;2.00;;;1.90;;
76788;SDS011;65740;52.464;13.446;2023-01-16T06:09:46;2.37;;;2.27;;
76788;SDS011;65740;52.464;13.446;2023-01-16T06:12:15;2.20;;;2.10;;
76788;SDS011;65740;52.464;13.446;2023-01-16T06:14:42;2.50;;;2.40;;
76788;SDS011;65740;52.464;13.446;2023-01-16T06:17:08;2.03;;;1.83;;
76788;SDS011;65740;52.464;13.446;2023-01-16T06:19:34;2.20;;;2.10;;
76788;SDS011;65740;52.464;13.446;2023-01-16T06:21:59;2.50;;;2.40;;
76788;SDS011;65740;52.464;13.446;2023-01-16T06:24:25;2.57;;;2.47;;
76788;SDS011;65740;52.464;13.446;2023-01-16T06:26:50;2.20;;;2.10;;
76788;SDS011;65740;52.464;13.446;2023-01-16T06:29:16;3.20;;;2.43;;
76788;SDS011;65740;52.464;13.446;2023-01-16T06:31:42;2.13;;;2.03;;
76788;SDS011;65740;52.464;13.446;2023-01-16T06:34:07;2.07;;;1.97;;
76788;SDS011;65740;52.464;13.446;2023-01-16T06:36:33;2.20;;;2.10;;
76788;SDS011;65740;52.464;13.446;2023-01-16T06:38:59;1.93;;;1.83;;
76788;SDS011;65740;52.464;13.446;2023-01-16T06:41:24;2.37;;;2.27;;
76788;SDS011;65740;52.464;13.446;2023-01-16T06:43:50;2.37;;;2.27;;
76788;SDS011;65740;52.464;13.446;2023-01-16T06:46:16;2.23;;;2.13;;
76788;SDS011;65740;52.464;13.446;2023-01-16T06:48:41;2.00;;;1.90;;
76788;SDS011;65740;52.464;13.446;2023-01-16T06:51:07;2.10;;;1.90;;
76788;SDS011;65740;52.464;13.446;2023-01-16T06:53:34;2.23;;;2.10;;
76788;SDS011;65740;52.464;13.446;2023-01-16T06:56:00;2.50;;;2.40;;
76788;SDS011;65740;52.464;13.446;2023-01-16T06:58:26;2.03;;;1.93;;
76788;SDS011;65740;52.464;13.446;2023-01-16T07:00:52;2.10;;;2.00;;
76788;SDS011;65740;52.464;13.446;2023-01-16T07:03:19;2.23;;;2.13;;
76788;SDS011;65740;52.464;13.446;2023-01-16T07:05:46;2.33;;;2.23;;
76788;SDS011;65740;52.464;13.446;2023-01-16T07:08:12;2.43;;;2.33;;
76788;SDS011;65740;52.464;13.446;2023-01-16T07:10:38;2.23;;;2.13;;
76788;SDS011;65740;52.464;13.446;2023-01-16T07:13:04;2.20;;;2.00;;
76788;SDS011;65740;52.464;13.446;2023-01-16T07:15:30;1.93;;;1.83;;
76788;SDS011;65740;52.464;13.446;2023-01-16T07:18:15;2.00;;;1.90;;
76788;SDS011;65740;52.464;13.446;2023-01-16T07:21:01;2.13;;;2.03;;
76788;SDS011;65740;52.464;13.446;2023-01-16T07:23:54;1.90;;;1.80;;
76788;SDS011;65740;52.464;13.446;2023-01-16T07:26:31;2.37;;;2.27;;
76788;SDS011;65740;52.464;13.446;2023-01-16T07:28:58;2.30;;;2.20;;
76788;SDS011;65740;52.464;13.446;2023-01-16T07:31:24;2.20;;;2.10;;
76788;SDS011;65740;52.464;13.446;2023-01-16T07:33:51;2.10;;;2.00;;
76788;SDS011;65740;52.464;13.446;2023-01-16T07:36:16;2.17;;;2.07;;
76788;SDS011;65740;52.464;13.446;2023-01-16T07:38:42;2.10;;;2.00;;
76788;SDS011;65740;52.464;13.446;2023-01-16T07:41:07;2.13;;;2.03;;
76788;SDS011;65740;52.464;13.446;2023-01-16T07:43:33;2.20;;;2.10;;
76788;SDS011;65740;52.464;13.446;2023-01-16T07:45:59;2.27;;;2.17;;
76788;SDS011;65740;52.464;13.446;2023-01-16T07:48:25;2.13;;;1.93;;
76788;SDS011;65740;52.464;13.446;2023-01-16T07:50:51;3.10;;;2.30;;
76788;SDS011;65740;52.464;13.446;2023-01-16T07:53:19;2.57;;;2.47;;
76788;SDS011;65740;52.464;13.446;2023-01-16T07:55:48;2.43;;;2.33;;
76788;SDS011;65740;52.464;13.446;2023-01-16T07:58:14;2.37;;;2.17;;
76788;SDS011;65740;52.464;13.446;2023-01-16T08:00:40;2.93;;;2.20;;
76788;SDS011;65740;52.464;13.446;2023-01-16T08:03:06;2.33;;;2.23;;
76788;SDS011;65740;52.464;13.446;2023-01-16T08:05:32;2.37;;;2.27;;
76788;SDS011;65740;52.464;13.446;2023-01-16T08:07:57;2.40;;;2.20;;
76788;SDS011;65740;52.464;13.446;2023-01-16T08:10:23;2.60;;;2.50;;
76788;SDS011;65740;52.464;13.446;2023-01-16T08:12:48;2.50;;;2.40;;
76788;SDS011;65740;52.464;13.446;2023-01-16T08:15:14;2.40;;;2.30;;
76788;SDS011;65740;52.464;13.446;2023-01-16T08:17:40;2.30;;;2.20;;
76788;SDS011;65740;52.464;13.446;2023-01-16T08:20:06;2.33;;;2.20;;
76788;SDS011;65740;52.464;13.446;2023-01-16T08:22:34;2.47;;;2.37;;
76788;SDS011;65740;52.464;13.446;2023-01-16T08:24:59;2.63;;;2.50;;
76788;SDS011;65740;52.464;13.446;2023-01-16T08:27:26;3.90;;;2.03;;
76788;SDS011;65740;52.464;13.446;2023-01-16T08:29:51;2.77;;;2.60;;
76788;SDS011;65740;52.464;13.446;2023-01-16T08:32:17;2.20;;;2.10;;
76788;SDS011;65740;52.464;13.446;2023-01-16T08:34:42;2.30;;;2.20;;
76788;SDS011;65740;52.464;13.446;2023-01-16T08:37:08;2.60;;;2.40;;
76788;SDS011;65740;52.464;13.446;2023-01-16T08:39:35;2.20;;;2.10;;
76788;SDS011;65740;52.464;13.446;2023-01-16T08:42:01;2.33;;;2.23;;
76788;SDS011;65740;52.464;13.446;2023-01-16T08:44:46;2.37;;;2.27;;
76788;SDS011;65740;52.464;13.446;2023-01-16T08:47:30;2.10;;;2.00;;
76788;SDS011;65740;52.464;13.446;2023-01-16T08:50:18;2.27;;;2.17;;
76788;SDS011;65740;52.464;13.446;2023-01-16T08:53:03;2.30;;;2.20;;
76788;SDS011;65740;52.464;13.446;2023-01-16T08:55:29;2.57;;;2.40;;
76788;SDS011;65740;52.464;13.446;2023-01-16T08:57:55;2.20;;;2.10;;
76788;SDS011;65740;52.464;13.446;2023-01-16T09:00:24;2.43;;;2.27;;
76788;SDS011;65740;52.464;13.446;2023-01-16T09:02:50;2.07;;;1.97;;
76788;SDS011;65740;52.464;13.446;2023-01-16T09:05:16;3.07;;;1.90;;
76788;SDS011;65740;52.464;13.446;2023-01-16T09:07:41;2.13;;;2.03;;
76788;SDS011;65740;52.464;13.446;2023-01-16T09:10:07;2.33;;;2.13;;
76788;SDS011;65740;52.464;13.446;2023-01-16T09:12:33;2.23;;;2.13;;
76788;SDS011;65740;52.464;13.446;2023-01-16T09:15:18;2.40;;;2.30;;
76788;SDS011;65740;52.464;13.446;2023-01-16T09:17:43;2.40;;;2.20;;
76788;SDS011;65740;52.464;13.446;2023-01-16T09:20:09;2.17;;;2.07;;
76788;SDS011;65740;52.464;13.446;2023-01-16T09:22:35;2.23;;;2.03;;
76788;SDS011;65740;52.464;13.446;2023-01-16T09:25:01;2.40;;;2.23;;
76788;SDS011;65740;52.464;13.446;2023-01-16T09:27:27;2.20;;;2.10;;
76788;SDS011;65740;52.464;13.446;2023-01-16T09:29:53;3.73;;;2.13;;
76788;SDS011;65740;52.464;13.446;2023-01-16T09:32:19;2.00;;;1.90;;
76788;SDS011;65740;52.464;13.446;2023-01-16T09:34:45;2.57;;;2.37;;
76788;SDS011;65740;52.464;13.446;2023-01-16T09:37:11;2.40;;;2.20;;
76788;SDS011;65740;52.464;13.446;2023-01-16T09:39:36;1.93;;;1.83;;
76788;SDS011;65740;52.464;13.446;2023-01-16T09:45:10;2.70;;;2.50;;
76788;SDS011;65740;52.464;13.446;2023-01-16T09:47:38;2.50;;;2.33;;
76788;SDS011;65740;52.464;13.446;2023-01-16T09:50:11;2.03;;;1.93;;
76788;SDS011;65740;52.464;13.446;2023-01-16T09:52:41;2.17;;;2.07;;
76788;SDS011;65740;52.464;13.446;2023-01-16T09:55:44;2.30;;;2.20;;
76788;SDS011;65740;52.464;13.446;2023-01-16T09:58:29;1.90;;;1.67;;
76788;SDS011;65740;52.464;13.446;2023-01-16T10:01:03;1.93;;;1.83;;
76788;SDS011;65740;52.464;13.446;2023-01-16T10:03:31;2.00;;;1.90;;
76788;SDS011;65740;52.464;13.446;2023-01-16T10:06:14;2.00;;;1.90;;
76788;SDS011;65740;52.464;13.446;2023-01-16T10:11:17;2.23;;;2.03;;
76788;SDS011;65740;52.464;13.446;2023-01-16T10:14:15;5.17;;;2.10;;
76788;SDS011;65740;52.464;13.446;2023-01-16T10:22:53;2.20;;;2.00;;
76788;SDS011;65740;52.464;13.446;2023-01-16T10:25:31;6.70;;;5.50;;
76788;SDS011;65740;52.464;13.446;2023-01-16T10:28:09;5.17;;;4.77;;
76788;SDS011;65740;52.464;13.446;2023-01-16T10:31:00;4.33;;;3.93;;
76788;SDS011;65740;52.464;13.446;2023-01-16T10:34:08;4.50;;;4.10;;
76788;SDS011;65740;52.464;13.446;2023-01-16T10:36:43;3.90;;;3.53;;
76788;SDS011;65740;52.464;13.446;2023-01-16T10:39:13;4.30;;;4.00;;
76788;SDS011;65740;52.464;13.446;2023-01-16T10:41:45;4.43;;;3.90;;
76788;SDS011;65740;52.464;13.446;2023-01-16T10:47:16;4.07;;;3.67;;
76788;SDS011;65740;52.464;13.446;2023-01-16T10:50:02;4.00;;;3.70;;
76788;SDS011;65740;52.464;13.446;2023-01-16T10:52:29;4.70;;;3.63;;
76788;SDS011;65740;52.464;13.446;2023-01-16T10:54:56;4.73;;;3.47;;
76788;SDS011;65740;52.464;13.446;2023-01-16T10:57:23;4.00;;;3.70;;
76788;SDS011;65740;52.464;13.446;2023-01-16T10:59:50;3.93;;;3.63;;
76788;SDS011;65740;52.464;13.446;2023-01-16T11:02:23;3.50;;;3.30;;
76788;SDS011;65740;52.464;13.446;2023-01-16T11:04:56;3.80;;;3.50;;
76788;SDS011;65740;52.464;13.446;2023-01-16T11:07:22;4.40;;;3.80;;
76788;SDS011;65740;52.464;13.446;2023-01-16T11:09:51;4.00;;;3.60;;
76788;SDS011;65740;52.464;13.446;2023-01-16T11:12:23;3.87;;;3.53;;
76788;SDS011;65740;52.464;13.446;2023-01-16T11:15:19;4.83;;;4.07;;
76788;SDS011;65740;52.464;13.446;2023-01-16T11:18:20;4.87;;;4.10;;
76788;SDS011;65740;52.464;13.446;2023-01-16T11:20:55;6.77;;;4.10;;
76788;SDS011;65740;52.464;13.446;2023-01-16T11:23:23;6.00;;;4.87;;
76788;SDS011;65740;52.464;13.446;2023-01-16T11:25:52;7.70;;;4.67;;
76788;SDS011;65740;52.464;13.446;2023-01-16T11:28:24;5.87;;;4.40;;
76788;SDS011;65740;52.464;13.446;2023-01-16T11:30:53;7.80;;;3.90;;
76788;SDS011;65740;52.464;13.446;2023-01-16T11:33:25;6.93;;;4.40;;
76788;SDS011;65740;52.464;13.446;2023-01-16T11:35:59;5.17;;;4.23;;
76788;SDS011;65740;52.464;13.446;2023-01-16T11:38:27;6.37;;;4.10;;
76788;SDS011;65740;52.464;13.446;2023-01-16T11:40:58;5.77;;;3.87;;
76788;SDS011;65740;52.464;13.446;2023-01-16T11:43:26;7.57;;;3.97;;
76788;SDS011;65740;52.464;13.446;2023-01-16T11:46:25;8.17;;;4.23;;
76788;SDS011;65740;52.464;13.446;2023-01-16T11:49:03;4.30;;;3.90;;
76788;SDS011;65740;52.464;13.446;2023-01-16T11:51:49;8.13;;;4.67;;
76788;SDS011;65740;52.464;13.446;2023-01-16T11:54:19;5.87;;;4.47;;
76788;SDS011;65740;52.464;13.446;2023-01-16T11:59:38;8.60;;;6.00;;
76788;SDS011;65740;52.464;13.446;2023-01-16T12:05:09;7.27;;;5.50;;
76788;SDS011;65740;52.464;13.446;2023-01-16T12:08:27;14.03;;;6.87;;
76788;SDS011;65740;52.464;13.446;2023-01-16T12:22:46;9.43;;;5.87;;
76788;SDS011;65740;52.464;13.446;2023-01-16T12:31:05;12.70;;;7.67;;
76788;SDS011;65740;52.464;13.446;2023-01-16T12:34:13;11.33;;;7.57;;
76788;SDS011;65740;52.464;13.446;2023-01-16T12:57:04;8.53;;;6.10;;
76788;SDS011;65740;52.464;13.446;2023-01-16T13:03:02;10.63;;;6.40;;
76788;SDS011;65740;52.464;13.446;2023-01-16T13:05:21;9.53;;;6.40;;
76788;SDS011;65740;52.464;13.446;2023-01-16T13:10:46;8.50;;;5.60;;
76788;SDS011;65740;52.464;13.446;2023-01-16T13:13:36;12.47;;;6.10;;
76788;SDS011;65740;52.464;13.446;2023-01-16T13:19:04;5.63;;;5.03;;
76788;SDS011;65740;52.464;13.446;2023-01-16T13:21:30;10.00;;;5.40;;
76788;SDS011;65740;52.464;13.446;2023-01-16T13:24:08;6.67;;;5.17;;
76788;SDS011;65740;52.464;13.446;2023-01-16T13:26:41;6.03;;;5.17;;
76788;SDS011;65740;52.464;13.446;2023-01-16T13:29:22;8.97;;;5.00;;
76788;SDS011;65740;52.464;13.446;2023-01-16T13:31:58;6.90;;;5.10;;
76788;SDS011;65740;52.464;13.446;2023-01-16T13:34:42;6.10;;;5.50;;
76788;SDS011;65740;52.464;13.446;2023-01-16T13:42:49;6.10;;;5.03;;
76788;SDS011;65740;52.464;13.446;2023-01-16T13:45:29;5.30;;;4.77;;
76788;SDS011;65740;52.464;13.446;2023-01-16T13:48:26;8.13;;;5.33;;
76788;SDS011;65740;52.464;13.446;2023-01-16T13:50:59;6.33;;;4.87;;
76788;SDS011;65740;52.464;13.446;2023-01-16T13:53:31;7.60;;;5.87;;
76788;SDS011;65740;52.464;13.446;2023-01-16T13:56:04;5.70;;;4.97;;
76788;SDS011;65740;52.464;13.446;2023-01-16T13:58:44;6.63;;;5.23;;
76788;SDS011;65740;52.464;13.446;2023-01-16T14:04:09;7.93;;;5.27;;
76788;SDS011;65740;52.464;13.446;2023-01-16T14:09:22;9.82;;;6.00;;
76788;SDS011;65740;52.464;13.446;2023-01-16T14:17:12;5.70;;;5.10;;
76788;SDS011;65740;52.464;13.446;2023-01-16T14:19:50;7.90;;;5.43;;
76788;SDS011;65740;52.464;13.446;2023-01-16T14:22:20;6.50;;;5.30;;
76788;SDS011;65740;52.464;13.446;2023-01-16T14:24:50;6.63;;;5.10;;
76788;SDS011;65740;52.464;13.446;2023-01-16T14:27:23;5.40;;;4.90;;
76788;SDS011;65740;52.464;13.446;2023-01-16T14:29:57;5.50;;;5.00;;
76788;SDS011;65740;52.464;13.446;2023-01-16T14:32:26;5.07;;;4.57;;
76788;SDS011;65740;52.464;13.446;2023-01-16T14:34:58;6.50;;;5.50;;
76788;SDS011;65740;52.464;13.446;2023-01-16T14:37:33;5.87;;;5.17;;
76788;SDS011;65740;52.464;13.446;2023-01-16T14:40:18;6.70;;;6.10;;
76788;SDS011;65740;52.464;13.446;2023-01-16T14:46:29;7.47;;;6.00;;
76788;SDS011;65740;52.464;13.446;2023-01-16T14:55:26;10.73;;;5.50;;
76788;SDS011;65740;52.464;13.446;2023-01-16T14:58:28;6.90;;;5.60;;
76788;SDS011;65740;52.464;13.446;2023-01-16T15:00:59;11.33;;;5.50;;
76788;SDS011;65740;52.464;13.446;2023-01-16T15:03:45;5.27;;;4.77;;
76788;SDS011;65740;52.464;13.446;2023-01-16T15:06:13;7.13;;;4.47;;
76788;SDS011;65740;52.464;13.446;2023-01-16T15:08:39;6.23;;;4.63;;
76788;SDS011;65740;52.464;13.446;2023-01-16T15:11:21;4.77;;;4.37;;
76788;SDS011;65740;52.464;13.446;2023-01-16T15:14:16;5.27;;;4.23;;
76788;SDS011;65740;52.464;13.446;2023-01-16T15:16:53;4.87;;;4.23;;
76788;SDS011;65740;52.464;13.446;2023-01-16T15:22:48;7.80;;;4.17;;
76788;SDS011;65740;52.464;13.446;2023-01-16T15:25:22;8.63;;;4.70;;
76788;SDS011;65740;52.464;13.446;2023-01-16T15:28:21;7.73;;;4.10;;
76788;SDS011;65740;52.464;13.446;2023-01-16T15:31:07;4.20;;;3.80;;
76788;SDS011;65740;52.464;13.446;2023-01-16T15:33:39;6.33;;;4.50;;
76788;SDS011;65740;52.464;13.446;2023-01-16T15:36:17;6.03;;;4.30;;
76788;SDS011;65740;52.464;13.446;2023-01-16T15:41:54;5.57;;;4.53;;
76788;SDS011;65740;52.464;13.446;2023-01-16T15:44:46;10.00;;;4.20;;
76788;SDS011;65740;52.464;13.446;2023-01-16T15:53:29;10.53;;;4.60;;
76788;SDS011;65740;52.464;13.446;2023-01-16T15:56:09;9.30;;;3.63;;
76788;SDS011;65740;52.464;13.446;2023-01-16T15:58:42;4.10;;;3.67;;
76788;SDS011;65740;52.464;13.446;2023-01-16T16:01:13;5.67;;;4.30;;
76788;SDS011;65740;52.464;13.446;2023-01-16T16:03:41;7.67;;;4.33;;
76788;SDS011;65740;52.464;13.446;2023-01-16T16:06:11;5.70;;;4.40;;
76788;SDS011;65740;52.464;13.446;2023-01-16T16:08:43;6.50;;;4.63;;
76788;SDS011;65740;52.464;13.446;2023-01-16T16:11:14;4.83;;;4.10;;
76788;SDS011;65740;52.464;13.446;2023-01-16T16:14:11;7.17;;;4.33;;
76788;SDS011;65740;52.464;13.446;2023-01-16T16:25:32;7.20;;;4.50;;
76788;SDS011;65740;52.464;13.446;2023-01-16T16:28:27;6.63;;;4.10;;
76788;SDS011;65740;52.464;13.446;2023-01-16T16:30:57;5.40;;;4.30;;
76788;SDS011;65740;52.464;13.446;2023-01-16T16:33:55;5.60;;;4.40;;
76788;SDS011;65740;52.464;13.446;2023-01-16T16:36:33;12.00;;;4.30;;
76788;SDS011;65740;52.464;13.446;2023-01-16T16:41:50;6.87;;;3.97;;
76788;SDS011;65740;52.464;13.446;2023-01-16T16:44:39;4.70;;;3.87;;
76788;SDS011;65740;52.464;13.446;2023-01-16T16:47:30;6.00;;;4.30;;
76788;SDS011;65740;52.464;13.446;2023-01-16T16:49:57;4.97;;;4.13;;
76788;SDS011;65740;52.464;13.446;2023-01-16T16:55:02;6.20;;;3.97;;
76788;SDS011;65740;52.464;13.446;2023-01-16T16:57:49;9.67;;;5.20;;
76788;SDS011;65740;52.464;13.446;2023-01-16T17:00:16;8.30;;;4.20;;
76788;SDS011;65740;52.464;13.446;2023-01-16T17:02:44;7.30;;;4.10;;
76788;SDS011;65740;52.464;13.446;2023-01-16T17:05:11;5.10;;;4.37;;
76788;SDS011;65740;52.464;13.446;2023-01-16T17:07:40;4.40;;;4.00;;
76788;SDS011;65740;52.464;13.446;2023-01-16T17:10:13;5.03;;;4.00;;
76788;SDS011;65740;52.464;13.446;2023-01-16T17:12:40;8.50;;;4.37;;
76788;SDS011;65740;52.464;13.446;2023-01-16T17:15:06;9.40;;;4.53;;
76788;SDS011;65740;52.464;13.446;2023-01-16T17:17:34;5.97;;;4.03;;
76788;SDS011;65740;52.464;13.446;2023-01-16T17:20:00;5.10;;;4.50;;
76788;SDS011;65740;52.464;13.446;2023-01-16T17:22:26;5.87;;;4.17;;
76788;SDS011;65740;52.464;13.446;2023-01-16T17:24:52;3.70;;;3.40;;
76788;SDS011;65740;52.464;13.446;2023-01-16T17:27:19;4.23;;;3.47;;
76788;SDS011;65740;52.464;13.446;2023-01-16T17:29:45;5.53;;;4.00;;
76788;SDS011;65740;52.464;13.446;2023-01-16T17:32:23;4.17;;;3.83;;
76788;SDS011;65740;52.464;13.446;2023-01-16T17:34:57;6.73;;;3.90;;
76788;SDS011;65740;52.464;13.446;2023-01-16T17:37:23;4.40;;;3.80;;
76788;SDS011;65740;52.464;13.446;2023-01-16T17:39:49;5.20;;;3.70;;
76788;SDS011;65740;52.464;13.446;2023-01-16T17:42:14;7.20;;;4.10;;
76788;SDS011;65740;52.464;13.446;2023-01-16T17:44:40;6.00;;;4.47;;
76788;SDS011;65740;52.464;13.446;2023-01-16T17:47:24;4.30;;;3.90;;